Terminal Aerodrome Forecast
Issued by NWS

Home | Current Version | Previous Version | Text Only | Print | Product List | Glossary On
Versions: 1 2 3 4 5 6 7 8 9 10 11 12
333
FTUS45 KABQ 182340
TAFTCC
TAF
KTCC 182340Z 1900/1924 18009KT P6SM VCSH SCT100 BKN150
     FM190500 22008KT P6SM BKN100
     FM191730 20013G23KT P6SM SCT100=

USA.gov is the U.S. government's official web portal to all federal, state and local government web resources and services.